Time;durP1;ratioP1;P1;durP2;ratioP2;P2;SDS_P1;SDS_P2;PMS_P1;PMS_P2;Temp;Humidity;BMP_temperature;BMP_pressure;BME280_temperature;BME280_humidity;BME280_pressure;Samples;Min_cycle;Max_cycle;Signal;HPM_P1;HPM_P2
2023/03/07 00:02:06;;;;;;;8.63;5.05;;;;;;;5.10;44.62;99596.00;5048589;28;20033;-76
2023/03/07 00:04:34;;;;;;;9.52;5.57;;;;;;;5.09;44.58;99590.72;5029835;28;20045;-76
2023/03/07 00:07:02;;;;;;;10.60;5.30;;;;;;;5.09;44.63;99598.84;5050125;28;20037;-76
2023/03/07 00:09:30;;;;;;;8.43;4.95;;;;;;;5.08;44.65;99588.97;5056180;28;20068;-77
2023/03/07 00:11:58;;;;;;;8.18;4.65;;;;;;;5.08;44.53;99591.69;5038005;28;20078;-77
2023/03/07 00:14:26;;;;;;;9.65;5.07;;;;;;;5.08;44.64;99597.97;5031448;28;20119;-76
2023/03/07 00:16:54;;;;;;;8.65;5.35;;;;;;;5.07;44.76;99589.97;5041659;28;20063;-77
2023/03/07 00:19:23;;;;;;;10.25;5.38;;;;;;;5.08;44.75;99583.56;5051427;28;20447;-76
2023/03/07 00:21:51;;;;;;;8.00;5.00;;;;;;;5.06;44.76;99590.97;5040475;28;20037;-76
2023/03/07 00:24:18;;;;;;;8.35;4.90;;;;;;;5.05;44.75;99581.09;5051133;28;20049;-76
2023/03/07 00:26:46;;;;;;;9.65;5.22;;;;;;;5.04;44.77;99580.28;5052360;28;20092;-77
2023/03/07 00:29:14;;;;;;;8.63;4.78;;;;;;;5.03;44.69;99583.97;5051366;28;20079;-76
2023/03/07 00:31:42;;;;;;;7.00;4.60;;;;;;;5.02;44.88;99575.97;5050742;28;20088;-76
2023/03/07 00:34:10;;;;;;;7.60;5.00;;;;;;;5.00;45.14;99578.78;5051168;28;20273;-76
2023/03/07 00:36:39;;;;;;;7.35;4.55;;;;;;;5.02;45.03;99565.09;5035000;28;20570;-76
2023/03/07 00:39:07;;;;;;;7.45;4.55;;;;;;;4.98;45.07;99561.78;5053029;28;20124;-77
2023/03/07 00:41:34;;;;;;;7.82;4.68;;;;;;;4.99;44.99;99571.66;5051883;28;20041;-76
2023/03/07 00:44:02;;;;;;;8.38;4.68;;;;;;;4.98;45.17;99569.91;5033781;28;20049;-77
2023/03/07 00:46:30;;;;;;;6.78;4.40;;;;;;;4.99;45.06;99568.06;5052110;28;20041;-77
2023/03/07 00:48:58;;;;;;;7.05;4.15;;;;;;;4.98;45.40;99567.22;5045993;28;20053;-77
2023/03/07 00:51:25;;;;;;;8.85;5.00;;;;;;;4.98;45.41;99569.06;5034473;28;20036;-77
2023/03/07 00:53:55;;;;;;;6.25;4.20;;;;;;;4.99;45.42;99560.81;5033988;28;20045;-77
2023/03/07 00:56:24;;;;;;;7.68;4.50;;;;;;;5.00;45.47;99561.66;5034499;28;20084;-77
2023/03/07 00:58:52;;;;;;;6.97;4.05;;;;;;;4.99;45.41;99558.09;5046535;28;20059;-77
2023/03/07 01:01:23;;;;;;;6.90;4.53;;;;;;;4.99;45.47;99554.50;5051867;28;20123;-77
2023/03/07 01:03:52;;;;;;;7.78;4.40;;;;;;;4.98;45.54;99556.38;5028651;28;20064;-76
2023/03/07 01:06:23;;;;;;;6.20;4.20;;;;;;;4.99;45.47;99558.09;5049856;28;20461;-77
2023/03/07 01:08:52;;;;;;;6.82;4.60;;;;;;;4.97;45.55;99548.34;5035660;28;20131;-76
2023/03/07 01:11:21;;;;;;;7.25;4.55;;;;;;;4.98;45.63;99558.22;5036408;28;20563;-77
2023/03/07 01:13:49;;;;;;;7.32;4.55;;;;;;;4.96;45.56;99555.66;5038853;28;20052;-77
2023/03/07 01:16:19;;;;;;;6.75;4.30;;;;;;;4.96;45.80;99552.94;5054805;28;20037;-76
2023/03/07 01:18:50;;;;;;;7.25;4.28;;;;;;;4.97;45.78;99551.94;5054564;28;20037;-77
2023/03/07 01:21:21;;;;;;;6.85;4.50;;;;;;;4.96;45.86;99546.66;5043301;28;20095;-77
2023/03/07 01:23:50;;;;;;;7.28;4.60;;;;;;;4.94;45.99;99546.78;5044078;28;20600;-78
2023/03/07 01:26:20;;;;;;;6.35;4.00;;;;;;;4.95;46.09;99537.66;5056645;28;20056;-78
2023/03/07 01:28:50;;;;;;;6.63;4.18;;;;;;;4.92;46.10;99548.75;5049382;28;20052;-78
2023/03/07 01:31:18;;;;;;;6.45;3.80;;;;;;;4.90;46.09;99540.75;5047185;28;20099;-78
2023/03/07 01:33:47;;;;;;;6.10;3.70;;;;;;;4.87;46.15;99554.59;5070282;28;20044;-78
2023/03/07 01:36:18;;;;;;;6.97;3.70;;;;;;;4.83;46.32;99544.97;5040219;28;20117;-78
2023/03/07 01:38:48;;;;;;;5.03;3.70;;;;;;;4.80;46.50;99545.22;5046718;28;20049;-78
2023/03/07 01:41:17;;;;;;;6.68;4.00;;;;;;;4.78;46.58;99539.09;5036809;28;20053;-78
2023/03/07 01:43:49;;;;;;;6.57;3.90;;;;;;;4.77;46.78;99539.22;5040032;28;20049;-78
2023/03/07 01:46:30;;;;;;;5.70;3.85;;;;;;;4.75;47.40;99536.63;5040095;28;20127;-78
2023/03/07 01:49:01;;;;;;;5.28;3.33;;;;;;;4.72;47.23;99542.31;5057901;28;20496;-78
2023/03/07 01:51:31;;;;;;;5.47;3.60;;;;;;;4.68;46.90;99529.16;5041340;28;20155;-79
2023/03/07 01:54:03;;;;;;;5.43;3.60;;;;;;;4.67;46.87;99524.72;5043715;28;20101;-78
2023/03/07 01:56:31;;;;;;;4.53;2.80;;;;;;;4.67;47.05;99522.00;5058945;28;20049;-78
2023/03/07 01:59:00;;;;;;;5.13;3.28;;;;;;;4.67;47.24;99516.59;5060814;28;20045;-79
2023/03/07 02:01:28;;;;;;;5.20;3.30;;;;;;;4.66;46.86;99523.00;5039420;28;20176;-78
2023/03/07 02:04:00;;;;;;;4.90;2.92;;;;;;;4.66;47.69;99504.88;5061667;28;20416;-78
2023/03/07 02:06:31;;;;;;;5.17;3.30;;;;;;;4.62;47.38;99508.88;5052202;28;20080;-77
2023/03/07 02:09:00;;;;;;;4.85;3.30;;;;;;;4.63;47.27;99501.59;5048446;28;20284;-78
2023/03/07 02:11:28;;;;;;;5.57;3.10;;;;;;;4.61;47.39;99508.97;5045249;28;20536;-78
2023/03/07 02:13:56;;;;;;;5.00;3.15;;;;;;;4.58;47.36;99499.25;5054606;28;20057;-78
2023/03/07 02:16:26;;;;;;;4.35;2.67;;;;;;;4.58;47.81;99496.53;5055099;28;20029;-78
2023/03/07 02:18:54;;;;;;;4.45;2.90;;;;;;;4.55;47.60;99496.81;5035906;28;20099;-78
2023/03/07 02:21:32;;;;;;;4.70;2.80;;;;;;;4.55;48.28;99492.25;5036106;28;20049;-78
2023/03/07 02:24:09;;;;;;;4.28;2.80;;;;;;;4.53;48.42;99494.25;5054462;28;20048;-78
2023/03/07 02:26:43;;;;;;;4.03;2.55;;;;;;;4.53;48.59;99493.38;5037878;28;20075;-78
2023/03/07 02:29:13;;;;;;;4.53;2.55;;;;;;;4.49;47.74;99490.06;5039389;28;20044;-77
2023/03/07 02:31:43;;;;;;;4.05;2.35;;;;;;;4.48;47.98;99484.75;5037011;28;20820;-78
2023/03/07 02:34:20;;;;;;;4.32;2.72;;;;;;;4.50;48.80;99485.50;5035185;28;20096;-78
2023/03/07 02:36:53;;;;;;;3.97;2.67;;;;;;;4.45;47.97;99476.91;5032291;28;20051;-78
2023/03/07 02:39:23;;;;;;;4.10;2.35;;;;;;;4.47;47.96;99472.22;5034907;28;20087;-78
2023/03/07 02:41:56;;;;;;;3.88;2.50;;;;;;;4.45;48.30;99475.06;5037343;28;20135;-78
2023/03/07 02:44:32;;;;;;;4.03;2.55;;;;;;;4.42;48.16;99474.44;5035134;28;20033;-78
2023/03/07 02:47:00;;;;;;;3.97;2.50;;;;;;;4.43;48.13;99468.91;5058886;28;20075;-78
2023/03/07 02:49:28;;;;;;;3.97;2.60;;;;;;;4.42;48.08;99467.19;5035462;28;20312;-78
2023/03/07 02:51:59;;;;;;;3.72;2.33;;;;;;;4.42;48.17;99469.03;5036347;28;20408;-78
2023/03/07 02:54:28;;;;;;;3.72;2.33;;;;;;;4.43;48.09;99460.78;5035795;28;20043;-78
2023/03/07 02:56:58;;;;;;;4.30;2.50;;;;;;;4.43;48.12;99460.78;5038725;28;20061;-78
2023/03/07 02:59:26;;;;;;;4.15;2.47;;;;;;;4.40;48.11;99461.03;5035050;28;20131;-78
2023/03/07 03:01:54;;;;;;;4.03;2.58;;;;;;;4.40;48.35;99458.31;5046954;28;20076;-78
2023/03/07 03:04:22;;;;;;;5.22;2.60;;;;;;;4.40;48.36;99452.03;5052930;28;20518;-78
2023/03/07 03:06:50;;;;;;;4.50;2.70;;;;;;;4.39;48.33;99458.44;5029919;28;20060;-78
2023/03/07 03:09:18;;;;;;;5.10;2.72;;;;;;;4.38;48.43;99449.47;5052978;28;20057;-78
2023/03/07 03:11:45;;;;;;;5.07;3.13;;;;;;;4.39;48.42;99453.03;5036808;28;20332;-78
2023/03/07 03:14:16;;;;;;;4.63;3.00;;;;;;;4.39;48.62;99458.44;5034526;28;20041;-78
2023/03/07 03:16:43;;;;;;;5.72;3.50;;;;;;;4.39;48.49;99450.31;5029295;28;20041;-78
2023/03/07 03:19:11;;;;;;;5.28;3.38;;;;;;;4.39;48.59;99448.47;5041103;28;20509;-78
2023/03/07 03:21:39;;;;;;;5.25;3.20;;;;;;;4.39;48.65;99447.59;5037035;28;20075;-79
2023/03/07 03:24:08;;;;;;;5.03;3.35;;;;;;;4.39;48.65;99451.19;5040493;28;20482;-78
2023/03/07 03:26:38;;;;;;;6.28;3.60;;;;;;;4.40;48.77;99446.63;5042210;28;20037;-78
2023/03/07 03:29:07;;;;;;;6.47;4.10;;;;;;;4.40;48.71;99439.34;5033044;28;20504;-78
2023/03/07 03:31:36;;;;;;;5.88;3.67;;;;;;;4.41;48.90;99446.50;5029603;28;20120;-78
2023/03/07 03:34:05;;;;;;;6.88;4.25;;;;;;;4.41;48.76;99437.50;5034212;28;20079;-78
2023/03/07 03:36:33;;;;;;;6.20;4.00;;;;;;;4.42;48.63;99433.81;5035207;28;20052;-77
2023/03/07 03:39:09;;;;;;;7.10;4.20;;;;;;;4.42;48.74;99439.22;5034456;28;20048;-78
2023/03/07 03:41:41;;;;;;;6.78;4.35;;;;;;;4.41;48.62;99435.66;5036072;28;20052;-78
2023/03/07 03:44:10;;;;;;;7.22;4.05;;;;;;;4.43;48.85;99436.41;5036434;28;20040;-78
2023/03/07 03:46:39;;;;;;;7.13;4.45;;;;;;;4.44;48.74;99430.00;5054093;28;20076;-78
2023/03/07 03:49:07;;;;;;;6.25;3.88;;;;;;;4.43;48.66;99430.13;5041232;28;20040;-78
2023/03/07 03:51:35;;;;;;;7.18;4.10;;;;;;;4.43;48.80;99425.56;5046064;28;20159;-78
2023/03/07 03:54:03;;;;;;;6.55;4.30;;;;;;;4.42;48.63;99420.28;5037527;28;20041;-78
2023/03/07 03:56:31;;;;;;;7.25;4.30;;;;;;;4.42;48.79;99423.84;5047877;28;20111;-77
2023/03/07 03:58:59;;;;;;;7.20;4.43;;;;;;;4.43;48.76;99420.16;5065345;28;20044;-78
2023/03/07 04:01:28;;;;;;;8.05;4.60;;;;;;;4.44;48.69;99415.59;5037882;28;20041;-78
2023/03/07 04:03:58;;;;;;;7.30;4.25;;;;;;;4.44;49.17;99421.00;5038992;28;20052;-78
2023/03/07 04:06:30;;;;;;;6.20;3.97;;;;;;;4.43;49.05;99406.59;5063358;28;20044;-77
2023/03/07 04:08:59;;;;;;;6.85;4.70;;;;;;;4.43;48.81;99411.16;5037346;28;20118;-78
2023/03/07 04:11:27;;;;;;;7.85;4.80;;;;;;;4.44;48.67;99405.63;5047077;28;20278;-78
2023/03/07 04:13:54;;;;;;;7.32;4.65;;;;;;;4.44;48.83;99393.91;5064115;28;20049;-77
2023/03/07 04:16:23;;;;;;;6.38;4.30;;;;;;;4.44;48.85;99400.19;5025527;28;20045;-79
2023/03/07 04:18:51;;;;;;;7.20;4.63;;;;;;;4.44;48.72;99400.19;5055936;28;20036;-78
2023/03/07 04:21:21;;;;;;;5.68;4.07;;;;;;;4.45;48.97;99396.50;5057524;28;20045;-79
2023/03/07 04:23:54;;;;;;;6.20;4.20;;;;;;;4.43;48.74;99394.91;5035087;28;20057;-77
2023/03/07 04:26:23;;;;;;;7.38;4.20;;;;;;;4.43;48.80;99397.63;5058068;28;20049;-79
2023/03/07 04:28:51;;;;;;;7.13;4.38;;;;;;;4.43;48.77;99393.06;5039559;28;20041;-79
2023/03/07 04:31:28;;;;;;;6.20;4.35;;;;;;;4.44;48.73;99388.50;5039619;28;20073;-77
2023/03/07 04:33:58;;;;;;;7.75;4.75;;;;;;;4.44;48.74;99383.09;5038349;28;20064;-78
2023/03/07 04:36:27;;;;;;;7.30;4.38;;;;;;;4.45;48.79;99384.81;5039065;28;20110;-78
2023/03/07 04:38:55;;;;;;;7.28;4.70;;;;;;;4.42;48.88;99375.06;5044361;28;20060;-78
2023/03/07 04:41:25;;;;;;;7.25;4.25;;;;;;;4.44;48.79;99372.25;5040519;28;20528;-79
2023/03/07 04:43:58;;;;;;;6.63;4.30;;;;;;;4.41;48.53;99372.50;5056665;28;20064;-79
2023/03/07 04:46:27;;;;;;;5.90;4.20;;;;;;;4.43;48.80;99370.53;5040905;28;20045;-78
2023/03/07 04:48:54;;;;;;;6.72;4.57;;;;;;;4.43;48.89;99370.53;5058125;28;20132;-79
2023/03/07 04:51:22;;;;;;;7.68;4.82;;;;;;;4.44;48.77;99366.84;5049029;28;20504;-79
2023/03/07 04:53:52;;;;;;;7.43;4.75;;;;;;;4.44;48.82;99364.13;5053196;28;20037;-79
2023/03/07 04:56:19;;;;;;;6.38;4.32;;;;;;;4.43;48.80;99365.97;5046955;28;20076;-78
2023/03/07 04:58:47;;;;;;;7.78;4.60;;;;;;;4.44;48.83;99359.56;5041704;28;20132;-78
2023/03/07 05:01:17;;;;;;;7.18;4.78;;;;;;;4.43;48.91;99356.97;5042816;28;20037;-78
2023/03/07 05:03:46;;;;;;;10.20;4.43;;;;;;;4.43;49.07;99362.41;5038037;28;20040;-78
2023/03/07 05:06:16;;;;;;;6.72;4.47;;;;;;;4.42;49.11;99353.41;5055396;28;20033;-78
2023/03/07 05:08:48;;;;;;;5.72;3.53;;;;;;;4.36;48.95;99353.09;5046001;28;20045;-78
2023/03/07 05:11:18;;;;;;;6.93;4.53;;;;;;;4.44;48.53;99356.00;5047928;28;20048;-78
2023/03/07 05:13:46;;;;;;;7.15;4.75;;;;;;;4.42;48.86;99345.28;5042528;28;20048;-78
2023/03/07 05:16:18;;;;;;;7.80;4.25;;;;;;;4.42;48.84;99349.84;5049226;28;20144;-78
2023/03/07 05:18:46;;;;;;;7.13;4.80;;;;;;;4.43;48.80;99340.72;5062082;28;20086;-79
2023/03/07 05:21:14;;;;;;;7.68;4.68;;;;;;;4.42;48.70;99345.28;5049452;28;20041;-79
2023/03/07 05:23:42;;;;;;;8.48;4.88;;;;;;;4.42;48.79;99341.72;5065392;28;20053;-79
2023/03/07 05:26:11;;;;;;;7.18;4.68;;;;;;;4.41;48.90;99340.00;5051549;28;20071;-77
2023/03/07 05:28:40;;;;;;;7.53;4.57;;;;;;;4.42;48.77;99339.88;5056450;28;20145;-78
2023/03/07 05:31:08;;;;;;;8.20;5.30;;;;;;;4.38;48.99;99326.75;5057055;28;20068;-77
2023/03/07 05:33:36;;;;;;;8.38;5.20;;;;;;;4.42;48.79;99330.88;5075061;28;20060;-77
2023/03/07 05:36:04;;;;;;;6.72;4.50;;;;;;;4.41;48.97;99332.72;5072461;28;20046;-79
2023/03/07 05:38:32;;;;;;;7.32;4.40;;;;;;;4.41;48.92;99331.88;5039547;28;20045;-80
2023/03/07 05:41:00;;;;;;;7.20;5.00;;;;;;;4.41;49.00;99334.56;5038677;28;20285;-79
2023/03/07 05:43:28;;;;;;;7.30;4.75;;;;;;;4.41;49.04;99323.75;5040463;28;20113;-78
2023/03/07 05:45:58;;;;;;;7.15;4.53;;;;;;;4.41;49.06;99324.59;5045477;28;20044;-78
2023/03/07 05:48:26;;;;;;;8.27;4.75;;;;;;;4.40;49.05;99328.28;5041035;28;20049;-78
2023/03/07 05:50:54;;;;;;;7.57;4.22;;;;;;;4.42;49.09;99334.44;5056758;28;20053;-78
2023/03/07 05:53:22;;;;;;;7.60;4.53;;;;;;;4.42;49.13;99330.88;5058315;28;20069;-78
2023/03/07 05:55:50;;;;;;;7.53;4.57;;;;;;;4.42;49.30;99323.63;5064642;28;20032;-78
2023/03/07 05:58:19;;;;;;;7.20;4.57;;;;;;;4.41;49.09;99321.91;5046299;28;20037;-78
2023/03/07 06:00:48;;;;;;;6.80;4.53;;;;;;;4.41;49.03;99316.47;5073061;28;20066;-79
2023/03/07 06:03:19;;;;;;;7.28;4.50;;;;;;;4.43;48.91;99321.75;5063754;28;20464;-79
2023/03/07 06:05:49;;;;;;;6.65;4.32;;;;;;;4.40;48.86;99317.47;5049700;28;20040;-78
2023/03/07 06:08:16;;;;;;;6.28;4.35;;;;;;;4.39;49.13;99315.75;5035663;28;20109;-78
2023/03/07 06:10:49;;;;;;;8.07;4.72;;;;;;;4.41;49.43;99318.31;5041758;28;20081;-79
2023/03/07 06:13:20;;;;;;;7.20;4.60;;;;;;;4.40;49.30;99324.72;5046536;28;20044;-77
2023/03/07 06:15:49;;;;;;;7.63;4.88;;;;;;;4.40;49.20;99316.59;5030337;28;20109;-79
2023/03/07 06:18:20;;;;;;;7.28;4.53;;;;;;;4.40;49.23;99314.75;5055289;28;20044;-78
2023/03/07 06:20:56;;;;;;;7.13;4.63;;;;;;;4.42;49.88;99314.63;5061007;28;20060;-78
2023/03/07 06:23:23;;;;;;;7.85;5.00;;;;;;;4.39;49.17;99304.91;5048910;28;20501;-79
2023/03/07 06:25:51;;;;;;;7.18;4.80;;;;;;;4.40;49.15;99308.47;5038167;28;20420;-79
2023/03/07 06:28:19;;;;;;;8.63;4.88;;;;;;;4.40;49.08;99309.34;5057613;28;20037;-78
2023/03/07 06:30:48;;;;;;;7.70;5.22;;;;;;;4.39;49.21;99302.19;5041611;28;20120;-78
2023/03/07 06:33:16;;;;;;;8.15;5.10;;;;;;;4.39;48.94;99302.19;5039661;28;20117;-78
2023/03/07 06:35:46;;;;;;;8.15;5.10;;;;;;;4.39;49.44;99299.50;5033816;28;20381;-77
2023/03/07 06:38:16;;;;;;;8.82;5.80;;;;;;;4.40;49.32;99298.50;5046942;28;20071;-77
2023/03/07 06:40:44;;;;;;;7.97;5.10;;;;;;;4.40;49.23;99297.63;5035483;28;20128;-79
2023/03/07 06:43:12;;;;;;;9.23;4.95;;;;;;;4.39;49.03;99298.63;5040218;28;20515;-80
2023/03/07 06:45:40;;;;;;;8.50;5.13;;;;;;;4.39;49.38;99294.06;5039833;28;20045;-80
2023/03/07 06:48:09;;;;;;;8.25;4.80;;;;;;;4.39;49.39;99296.78;5047781;28;20508;-79
2023/03/07 06:50:38;;;;;;;7.63;4.70;;;;;;;4.39;49.22;99291.38;5046408;28;20308;-79
2023/03/07 06:53:07;;;;;;;7.15;4.60;;;;;;;4.39;49.54;99288.66;5053523;28;20248;-78
2023/03/07 06:55:35;;;;;;;8.93;5.03;;;;;;;4.38;49.43;99283.41;5048556;28;20064;-79
2023/03/07 06:58:03;;;;;;;8.25;5.40;;;;;;;4.40;49.69;99289.50;5051075;28;20041;-79
2023/03/07 07:00:31;;;;;;;8.20;5.18;;;;;;;4.38;49.52;99286.97;5063544;28;20091;-79
2023/03/07 07:02:59;;;;;;;8.68;4.70;;;;;;;4.39;49.60;99296.78;5070572;28;20460;-79
2023/03/07 07:05:27;;;;;;;9.65;5.45;;;;;;;4.40;49.47;99289.50;5063772;28;20511;-79
2023/03/07 07:07:55;;;;;;;8.80;5.10;;;;;;;4.41;49.63;99288.53;5047632;28;20356;-79
2023/03/07 07:10:24;;;;;;;7.75;4.82;;;;;;;4.42;49.62;99288.41;5071164;28;20049;-78
2023/03/07 07:12:55;;;;;;;8.50;5.00;;;;;;;4.43;49.55;99287.41;5048659;28;20428;-78
2023/03/07 07:15:24;;;;;;;8.93;5.28;;;;;;;4.41;49.59;99281.25;5073116;28;20049;-77
2023/03/07 07:17:52;;;;;;;9.55;4.60;;;;;;;4.44;49.71;99282.84;5038990;28;20053;-80
2023/03/07 07:20:21;;;;;;;7.13;4.63;;;;;;;4.45;49.58;99281.88;5054525;28;20515;-78
2023/03/07 07:22:49;;;;;;;9.30;5.35;;;;;;;4.46;49.61;99280.88;5036056;28;20045;-77
2023/03/07 07:25:17;;;;;;;8.10;5.32;;;;;;;4.46;49.72;99278.16;5055023;28;20143;-78
2023/03/07 07:27:46;;;;;;;9.93;5.35;;;;;;;4.48;49.64;99278.88;5035514;28;20055;-78
2023/03/07 07:30:14;;;;;;;8.20;4.95;;;;;;;4.47;49.89;99277.19;5036878;28;20049;-80
2023/03/07 07:32:43;;;;;;;8.25;5.20;;;;;;;4.48;49.54;99279.72;5042963;28;20575;-79
2023/03/07 07:35:12;;;;;;;8.43;4.93;;;;;;;4.47;49.76;99278.00;5034073;28;20496;-78
2023/03/07 07:37:40;;;;;;;8.18;5.15;;;;;;;4.49;49.70;99277.88;5052090;28;20056;-77
2023/03/07 07:40:10;;;;;;;7.60;4.75;;;;;;;4.50;49.68;99274.19;5058333;28;20045;-78
2023/03/07 07:42:38;;;;;;;9.27;5.40;;;;;;;4.50;49.84;99277.75;5055285;28;20091;-80
2023/03/07 07:45:32;;;;;;;9.80;5.38;;;;;;;4.49;50.12;99283.31;5036147;28;20056;-79
2023/03/07 07:48:00;;;;;;;10.38;5.20;;;;;;;4.51;49.88;99278.63;5058874;28;20049;-80
2023/03/07 07:50:28;;;;;;;10.73;5.70;;;;;;;4.51;49.65;99284.91;5034302;28;20045;-77
2023/03/07 07:52:56;;;;;;;9.00;5.28;;;;;;;4.53;49.87;99276.63;5053703;28;20064;-78
2023/03/07 07:55:24;;;;;;;8.50;5.30;;;;;;;4.53;49.79;99277.50;5054518;28;20045;-78
2023/03/07 07:57:52;;;;;;;10.20;5.57;;;;;;;4.53;49.81;99285.63;5041891;28;20040;-78
2023/03/07 08:00:21;;;;;;;7.43;4.80;;;;;;;4.55;49.73;99277.38;5042890;28;20072;-78
2023/03/07 08:02:50;;;;;;;8.73;5.20;;;;;;;4.55;49.85;99278.19;5037839;28;20061;-78
2023/03/07 08:05:19;;;;;;;8.65;4.97;;;;;;;4.55;49.77;99283.63;5057421;28;20056;-80
2023/03/07 08:07:49;;;;;;;9.50;5.15;;;;;;;4.55;49.80;99282.78;5058969;28;20052;-80
2023/03/07 08:10:18;;;;;;;8.32;5.30;;;;;;;4.57;49.90;99288.03;5037482;28;20116;-78
2023/03/07 08:12:50;;;;;;;8.68;5.00;;;;;;;4.57;50.03;99283.47;5047108;28;20155;-78
2023/03/07 08:15:20;;;;;;;8.20;4.87;;;;;;;4.55;49.79;99290.91;5039309;28;20075;-77
2023/03/07 08:17:51;;;;;;;7.30;4.50;;;;;;;4.57;49.72;99285.34;5042315;28;20359;-80
2023/03/07 08:20:21;;;;;;;7.70;4.80;;;;;;;4.55;49.76;99277.38;5050840;28;20098;-80
2023/03/07 08:22:49;;;;;;;7.47;4.60;;;;;;;4.55;49.76;99282.78;5055414;28;20071;-80
2023/03/07 08:25:21;;;;;;;8.40;4.53;;;;;;;4.57;49.68;99282.63;5054739;28;20041;-79
2023/03/07 08:27:51;;;;;;;7.78;4.55;;;;;;;4.54;49.87;99281.94;5060070;28;20056;-80
2023/03/07 08:30:19;;;;;;;7.60;4.57;;;;;;;4.54;49.78;99272.94;5034672;28;20533;-80
2023/03/07 08:32:50;;;;;;;8.65;4.78;;;;;;;4.54;49.83;99273.78;5063723;28;20044;-78
2023/03/07 08:35:19;;;;;;;7.28;4.57;;;;;;;4.54;49.75;99273.78;5035138;28;20075;-78
2023/03/07 08:37:48;;;;;;;7.45;4.57;;;;;;;4.54;49.56;99276.50;5039579;28;20048;-78
2023/03/07 08:40:16;;;;;;;6.97;4.32;;;;;;;4.53;49.79;99263.94;5042031;28;20071;-78
2023/03/07 08:42:44;;;;;;;6.65;4.30;;;;;;;4.53;49.49;99273.94;5029561;28;20041;-77
2023/03/07 08:45:12;;;;;;;8.00;4.32;;;;;;;4.53;49.94;99260.38;5034650;28;20045;-78
2023/03/07 08:47:40;;;;;;;6.47;4.10;;;;;;;4.52;49.72;99281.19;5058089;28;20037;-78
2023/03/07 08:50:11;;;;;;;7.03;3.95;;;;;;;4.51;49.93;99265.94;5044512;28;20045;-77
2023/03/07 08:52:39;;;;;;;7.68;4.60;;;;;;;4.52;49.76;99261.38;5055046;28;20035;-77
2023/03/07 08:55:07;;;;;;;7.10;4.35;;;;;;;4.53;49.78;99268.50;5038879;28;20080;-80
2023/03/07 08:57:35;;;;;;;6.07;3.97;;;;;;;4.52;49.85;99258.66;5063444;28;20088;-76
2023/03/07 09:00:06;;;;;;;5.50;3.88;;;;;;;4.54;49.78;99262.97;5062005;28;20102;-78
2023/03/07 09:02:34;;;;;;;5.95;3.97;;;;;;;4.54;49.85;99265.66;5053589;28;20067;-77
2023/03/07 09:05:02;;;;;;;6.28;3.90;;;;;;;4.54;49.95;99276.50;5067818;28;20049;-77
2023/03/07 09:07:32;;;;;;;7.13;3.83;;;;;;;4.56;49.94;99270.94;5038360;28;20052;-77
2023/03/07 09:09:59;;;;;;;6.22;4.57;;;;;;;4.57;49.98;99269.09;5036759;28;20037;-77
2023/03/07 09:12:27;;;;;;;5.82;3.90;;;;;;;4.57;49.70;99272.66;5055193;28;20452;-77
2023/03/07 09:14:55;;;;;;;5.45;3.80;;;;;;;4.57;49.76;99280.78;5040946;28;20056;-77
2023/03/07 09:17:23;;;;;;;6.45;4.32;;;;;;;4.57;49.84;99288.03;5054087;28;20052;-77
2023/03/07 09:19:51;;;;;;;7.07;3.80;;;;;;;4.56;49.94;99284.47;5052603;28;20452;-77
2023/03/07 09:22:18;;;;;;;6.93;4.15;;;;;;;4.55;50.07;99282.78;5035628;28;20063;-77
2023/03/07 09:24:47;;;;;;;6.60;4.10;;;;;;;4.57;50.05;99290.75;5057014;28;20110;-77
2023/03/07 09:27:15;;;;;;;7.32;4.45;;;;;;;4.55;50.14;99294.44;5035863;28;20049;-77
2023/03/07 09:29:43;;;;;;;6.50;4.07;;;;;;;4.54;50.13;99300.88;5046292;28;20053;-79
2023/03/07 09:32:11;;;;;;;6.75;3.75;;;;;;;4.56;49.96;99287.19;5048098;28;20052;-79
2023/03/07 09:34:39;;;;;;;6.15;4.20;;;;;;;4.52;50.11;99292.03;5045913;28;20560;-79
2023/03/07 09:37:06;;;;;;;7.13;4.07;;;;;;;4.53;50.25;99287.47;5049969;28;20492;-78
2023/03/07 09:39:34;;;;;;;7.07;4.43;;;;;;;4.52;50.20;99292.03;5034191;28;20037;-79
2023/03/07 09:42:16;;;;;;;6.93;4.32;;;;;;;4.54;51.14;99281.06;5056743;28;20040;-79
2023/03/07 09:45:10;;;;;;;6.75;3.95;;;;;;;4.52;50.97;99297.44;5044519;28;20103;-77
2023/03/07 09:48:23;;;;;;;8.40;4.40;;;;;;;4.48;51.17;99290.56;5055739;28;20261;-79
2023/03/07 09:50:54;;;;;;;6.25;4.07;;;;;;;4.49;50.65;99291.44;5050255;28;20087;-79
2023/03/07 09:53:35;;;;;;;7.97;3.72;;;;;;;4.51;50.61;99292.16;5057391;28;20047;-79
2023/03/07 09:56:08;;;;;;;7.07;4.38;;;;;;;4.50;50.55;99291.31;5055309;28;20131;-77
2023/03/07 09:58:43;;;;;;;7.32;4.57;;;;;;;4.49;51.00;99292.28;5024927;28;20115;-77
2023/03/07 10:01:15;;;;;;;8.88;4.78;;;;;;;4.50;50.87;99294.00;5050612;28;20045;-78
2023/03/07 10:03:51;;;;;;;5.60;3.43;;;;;;;4.49;51.19;99302.25;5025401;28;20055;-77
2023/03/07 10:06:25;;;;;;;4.32;2.72;;;;;;;4.50;50.87;99315.69;5051167;28;20041;-77
2023/03/07 10:08:55;;;;;;;3.72;2.33;;;;;;;4.49;50.49;99305.84;5051868;28;20081;-79
2023/03/07 10:11:36;;;;;;;3.33;1.92;;;;;;;4.50;50.77;99321.09;5038894;28;20044;-77
2023/03/07 10:14:21;;;;;;;3.47;1.58;;;;;;;4.49;50.78;99327.50;5058848;28;20048;-78
2023/03/07 10:16:54;;;;;;;3.22;1.30;;;;;;;4.46;50.15;99325.09;5051079;28;20045;-78
2023/03/07 10:19:31;;;;;;;2.20;1.40;;;;;;;4.47;50.46;99331.34;5051478;28;20041;-78
2023/03/07 10:22:09;;;;;;;2.42;1.50;;;;;;;4.43;50.29;99327.19;5057452;28;20059;-77
2023/03/07 10:24:46;;;;;;;2.05;1.23;;;;;;;4.43;50.27;99335.31;5034011;28;20375;-77
2023/03/07 10:27:15;;;;;;;2.17;1.30;;;;;;;4.38;50.07;99338.44;5038404;28;20048;-77
2023/03/07 10:29:48;;;;;;;2.03;1.30;;;;;;;4.38;50.10;99346.56;5033799;28;20041;-79
2023/03/07 10:32:21;;;;;;;3.15;1.50;;;;;;;4.34;50.17;99345.09;5054011;28;20076;-79
2023/03/07 10:34:54;;;;;;;;;;;;;;;4.10;51.13;99339.91;5047407;28;20111;-78
2023/03/07 10:37:30;;;;;;;1.67;1.10;;;;;;;4.27;50.08;99345.75;5035973;28;19967;-78
2023/03/07 10:40:00;;;;;;;1.23;0.80;;;;;;;4.29;49.82;99343.78;5035732;28;20529;-79
2023/03/07 10:42:38;;;;;;;2.05;1.20;;;;;;;4.29;50.28;99344.63;5035325;28;20433;-78
2023/03/07 10:45:12;;;;;;;1.70;1.05;;;;;;;4.29;50.50;99344.63;5035020;28;20136;-79
2023/03/07 10:47:40;;;;;;;2.15;1.35;;;;;;;4.26;50.09;99342.16;5033902;28;20055;-77
2023/03/07 10:50:29;;;;;;;2.20;1.20;;;;;;;4.29;50.85;99338.34;5049879;28;20094;-77
2023/03/07 10:53:00;;;;;;;2.20;1.30;;;;;;;4.24;50.24;99346.00;5045528;28;20041;-77
2023/03/07 10:55:39;;;;;;;1.95;1.00;;;;;;;4.27;50.73;99351.16;5049515;28;20045;-76
2023/03/07 10:58:23;;;;;;;2.17;1.05;;;;;;;4.25;50.70;99345.00;5049977;28;20120;-79
2023/03/07 11:01:02;;;;;;;1.70;1.00;;;;;;;4.25;50.85;99347.72;5035132;28;20044;-76
2023/03/07 11:03:40;;;;;;;2.22;1.05;;;;;;;4.23;50.69;99339.72;5050114;28;20428;-77
2023/03/07 11:06:39;;;;;;;1.75;0.95;;;;;;;4.23;50.61;99350.53;5031951;28;20041;-77
2023/03/07 11:09:19;;;;;;;2.28;1.10;;;;;;;4.23;50.93;99353.25;5044291;28;20428;-77
2023/03/07 11:11:50;;;;;;;2.50;1.23;;;;;;;4.21;50.24;99352.56;5042170;28;20164;-77
2023/03/07 11:14:20;;;;;;;1.98;0.90;;;;;;;4.21;50.27;99360.69;5052954;28;20071;-77
2023/03/07 11:16:52;;;;;;;2.03;0.90;;;;;;;4.24;50.10;99359.53;5048449;28;20054;-78
2023/03/07 11:19:42;;;;;;;1.20;0.80;;;;;;;4.22;50.72;99356.13;5047172;28;20049;-77
2023/03/07 11:22:19;;;;;;;1.30;0.82;;;;;;;4.23;50.54;99355.97;5047332;28;20467;-77
2023/03/07 11:24:54;;;;;;;1.25;0.90;;;;;;;4.23;50.50;99364.09;5041835;28;20049;-77
2023/03/07 11:27:25;;;;;;;1.17;0.82;;;;;;;4.22;50.02;99354.28;5053630;28;20527;-77
2023/03/07 11:30:21;;;;;;;1.52;0.80;;;;;;;4.23;50.59;99353.25;5048966;28;20064;-77
2023/03/07 11:32:59;;;;;;;0.63;0.63;;;;;;;4.23;50.42;99360.53;5021444;28;20049;-78
2023/03/07 11:35:40;;;;;;;2.20;0.90;;;;;;;4.22;50.29;99356.97;5056705;28;20049;-77
2023/03/07 11:38:18;;;;;;;1.15;0.70;;;;;;;4.24;50.18;99354.13;5050574;28;20049;-77
2023/03/07 11:40:55;;;;;;;2.50;0.90;;;;;;;4.23;50.22;99355.97;5033189;28;20044;-78
2023/03/07 11:43:36;;;;;;;1.55;0.70;;;;;;;4.23;50.33;99352.41;5041693;28;20045;-78
2023/03/07 11:46:09;;;;;;;0.88;0.70;;;;;;;4.22;50.29;99359.69;5035351;28;20056;-79
2023/03/07 11:48:52;;;;;;;1.45;1.02;;;;;;;4.24;50.40;99354.97;5052753;28;20057;-78
2023/03/07 11:51:35;;;;;;;1.53;1.03;;;;;;;4.22;50.23;99353.41;5052735;28;20060;-78
2023/03/07 11:54:15;;;;;;;0.95;0.80;;;;;;;4.20;50.24;99352.69;5037418;28;20540;-78
2023/03/07 11:56:47;;;;;;;1.85;1.00;;;;;;;4.21;50.31;99351.69;5027934;28;20119;-78
2023/03/07 11:59:47;;;;;;;1.80;1.00;;;;;;;4.20;50.37;99349.97;5051971;28;20051;-77